createdAt,value
2022-08-26T00:01:56.935Z,23.36
2022-08-26T00:04:59.117Z,23.34
2022-08-26T00:08:01.069Z,23.35
2022-08-26T00:11:03.430Z,23.38
2022-08-26T00:14:05.460Z,23.39
2022-08-26T00:17:08.728Z,23.42
2022-08-26T00:20:14.206Z,23.43
2022-08-26T00:23:16.219Z,23.42
2022-08-26T00:26:18.679Z,23.42
2022-08-26T00:29:22.876Z,23.42
2022-08-26T00:32:24.812Z,23.40
2022-08-26T00:35:29.260Z,23.40
2022-08-26T00:38:38.336Z,23.38
2022-08-26T00:41:41.708Z,23.41
2022-08-26T00:44:43.721Z,23.41
2022-08-26T00:48:01.327Z,23.39
2022-08-26T00:51:16.472Z,23.40
2022-08-26T00:54:23.110Z,23.37
2022-08-26T00:57:25.599Z,23.35
2022-08-26T01:00:30.256Z,23.34
2022-08-26T01:03:34.810Z,23.35
2022-08-26T01:06:36.951Z,23.34
2022-08-26T01:09:39.782Z,23.32
2022-08-26T01:12:57.958Z,23.34
2022-08-26T01:16:04.402Z,23.32
2022-08-26T01:19:21.653Z,23.33
2022-08-26T01:22:30.141Z,23.34
2022-08-26T01:25:37.114Z,23.32
2022-08-26T01:28:41.987Z,23.31
2022-08-26T01:31:47.414Z,23.28
2022-08-26T01:34:49.744Z,23.26
2022-08-26T01:37:53.973Z,23.21
2022-08-26T01:40:56.341Z,23.19
2022-08-26T01:44:00.872Z,23.18
2022-08-26T01:47:05.165Z,23.13
2022-08-26T01:50:27.521Z,23.16
2022-08-26T01:53:31.151Z,23.15
2022-08-26T01:56:36.576Z,23.14
2022-08-26T01:59:38.713Z,23.13
2022-08-26T02:02:46.678Z,23.13
2022-08-26T02:06:00.962Z,23.14
2022-08-26T02:09:05.329Z,23.15
2022-08-26T02:12:08.790Z,23.14
2022-08-26T02:15:12.981Z,23.14
2022-08-26T02:18:15.027Z,23.12
2022-08-26T02:21:18.059Z,23.13
2022-08-26T02:24:22.221Z,23.08
2022-08-26T02:27:32.214Z,23.08
2022-08-26T02:30:34.683Z,23.09
2022-08-26T02:33:37.853Z,23.03
2022-08-26T02:36:45.275Z,23.06
2022-08-26T02:39:47.288Z,23.05
2022-08-26T02:42:50.333Z,23.04
2022-08-26T02:45:55.286Z,23.00
2022-08-26T02:48:58.400Z,23.00
2022-08-26T02:52:01.871Z,22.95
2022-08-26T02:55:06.179Z,22.95
2022-08-26T02:58:08.513Z,22.96
2022-08-26T03:01:19.681Z,22.91
2022-08-26T03:04:22.037Z,22.91
2022-08-26T03:07:28.065Z,22.94
2022-08-26T03:10:32.286Z,22.97
2022-08-26T03:13:36.349Z,22.97
2022-08-26T03:16:38.369Z,23.01
2022-08-26T03:19:40.222Z,22.98
2022-08-26T03:22:43.230Z,23.02
2022-08-26T03:25:50.399Z,23.00
2022-08-26T03:29:11.112Z,23.01
2022-08-26T03:32:13.158Z,23.07
2022-08-26T03:35:15.104Z,23.07
2022-08-26T03:38:17.056Z,23.07
2022-08-26T03:41:19.041Z,23.13
2022-08-26T03:44:21.282Z,23.18
2022-08-26T03:47:23.518Z,23.16
2022-08-26T03:50:26.766Z,23.25
2022-08-26T03:53:28.883Z,23.31
2022-08-26T03:56:33.479Z,23.34
2022-08-26T03:59:35.437Z,23.49
2022-08-26T04:02:38.993Z,23.51
2022-08-26T04:05:40.911Z,23.64
2022-08-26T04:08:43.297Z,23.65
2022-08-26T04:11:46.234Z,23.70
2022-08-26T04:14:53.166Z,23.78
2022-08-26T04:17:57.362Z,23.83
2022-08-26T04:20:59.504Z,23.85
2022-08-26T04:24:03.559Z,23.88
2022-08-26T04:27:10.515Z,23.92
2022-08-26T04:30:13.239Z,23.98
2022-08-26T04:33:15.800Z,24.01
2022-08-26T04:36:20.096Z,23.99
2022-08-26T04:39:22.385Z,24.00
2022-08-26T04:42:25.902Z,24.01
2022-08-26T04:45:28.652Z,24.03
2022-08-26T04:48:32.053Z,24.07
2022-08-26T04:51:35.996Z,24.08
2022-08-26T04:54:38.947Z,24.12
2022-08-26T04:57:43.919Z,24.14
2022-08-26T05:00:49.961Z,24.21
2022-08-26T05:03:52.648Z,24.23
2022-08-26T05:06:57.896Z,24.38
2022-08-26T05:10:05.337Z,24.51
2022-08-26T05:13:16.059Z,24.64
2022-08-26T05:16:19.040Z,24.64
2022-08-26T05:19:22.413Z,24.67
2022-08-26T05:22:25.169Z,24.73
2022-08-26T05:25:28.841Z,24.82
2022-08-26T05:28:32.034Z,24.86
2022-08-26T05:31:35.102Z,25.04
2022-08-26T05:34:37.594Z,25.16
2022-08-26T05:37:40.225Z,25.25
2022-08-26T05:40:45.322Z,25.30
2022-08-26T05:43:47.467Z,25.38
2022-08-26T05:46:51.791Z,25.33
2022-08-26T05:49:55.520Z,25.32
2022-08-26T05:52:59.209Z,25.36
2022-08-26T05:56:01.293Z,25.37
2022-08-26T05:59:03.719Z,25.34
2022-08-26T06:02:07.216Z,25.29
2022-08-26T06:05:09.833Z,25.31
2022-08-26T06:08:13.639Z,25.35
2022-08-26T06:11:18.883Z,25.47
2022-08-26T06:14:20.891Z,25.96
2022-08-26T06:17:22.841Z,26.49
2022-08-26T06:20:25.484Z,26.97
2022-08-26T06:23:48.284Z,27.16
2022-08-26T06:26:53.559Z,27.24
2022-08-26T06:29:55.469Z,27.15
2022-08-26T06:32:57.417Z,27.05
2022-08-26T06:36:01.220Z,26.97
2022-08-26T06:39:07.622Z,26.85
2022-08-26T06:42:11.015Z,26.77
2022-08-26T06:45:14.658Z,26.72
2022-08-26T06:48:19.570Z,26.73
2022-08-26T06:51:30.372Z,26.77
2022-08-26T06:54:32.479Z,26.72
2022-08-26T06:57:37.715Z,26.66
2022-08-26T07:00:47.519Z,26.68
2022-08-26T07:03:54.767Z,26.81
2022-08-26T07:06:59.281Z,26.87
2022-08-26T07:10:02.050Z,27.06
2022-08-26T07:13:04.120Z,27.54
2022-08-26T07:16:12.571Z,28.14
2022-08-26T07:19:17.453Z,28.59
2022-08-26T07:22:30.541Z,29.16
2022-08-26T07:25:32.297Z,29.47
2022-08-26T07:28:34.762Z,29.40
2022-08-26T07:31:42.423Z,29.29
2022-08-26T07:34:45.745Z,29.21
2022-08-26T07:37:47.707Z,29.11
2022-08-26T07:40:50.811Z,29.09
2022-08-26T07:43:54.223Z,29.12
2022-08-26T07:46:57.289Z,29.33
2022-08-26T07:49:59.391Z,29.64
2022-08-26T07:53:03.570Z,29.69
2022-08-26T07:56:06.595Z,29.68
2022-08-26T07:59:14.075Z,29.60
2022-08-26T08:02:17.168Z,29.74
2022-08-26T08:05:21.556Z,29.70
2022-08-26T08:08:27.800Z,29.74
2022-08-26T08:11:31.412Z,29.93
2022-08-26T08:14:34.731Z,30.30
2022-08-26T08:17:37.170Z,30.42
2022-08-26T08:20:40.572Z,30.28
2022-08-26T08:23:46.997Z,30.51
2022-08-26T08:26:49.504Z,30.57
2022-08-26T08:29:56.981Z,31.27
2022-08-26T08:32:59.076Z,31.74
2022-08-26T08:36:02.392Z,32.07
2022-08-26T08:39:04.987Z,32.19
2022-08-26T08:42:28.664Z,32.46
2022-08-26T08:45:44.775Z,32.47
2022-08-26T08:48:56.976Z,32.72
2022-08-26T08:52:06.997Z,32.92
2022-08-26T08:55:10.988Z,32.96
2022-08-26T08:58:19.667Z,33.14
2022-08-26T09:01:25.712Z,33.46
2022-08-26T09:04:39.640Z,33.69
2022-08-26T09:07:54.255Z,33.89
2022-08-26T09:11:00.502Z,34.05
2022-08-26T09:14:03.060Z,34.10
2022-08-26T09:17:24.076Z,33.98
2022-08-26T09:20:53.901Z,34.10
2022-08-26T09:23:56.965Z,34.38
2022-08-26T09:26:59.445Z,34.47
2022-08-26T09:30:01.378Z,34.47
2022-08-26T09:33:10.187Z,34.11
2022-08-26T09:36:41.019Z,33.89
2022-08-26T09:39:43.512Z,33.74
2022-08-26T09:42:46.477Z,33.84
2022-08-26T09:46:09.696Z,34.18
2022-08-26T09:49:36.081Z,34.51
2022-08-26T09:52:40.385Z,34.64
2022-08-26T09:55:47.772Z,34.74
2022-08-26T09:58:51.821Z,34.62
2022-08-26T10:01:55.067Z,34.73
2022-08-26T10:05:09.013Z,34.72
2022-08-26T10:08:20.953Z,34.21
2022-08-26T10:11:43.188Z,34.22
2022-08-26T10:14:57.892Z,34.19
2022-08-26T10:18:11.285Z,34.38
2022-08-26T10:21:20.888Z,34.36
2022-08-26T10:24:31.621Z,34.45
2022-08-26T10:27:55.064Z,34.38
2022-08-26T10:31:28.256Z,34.53
2022-08-26T10:34:32.585Z,34.69
2022-08-26T10:37:51.020Z,34.52
2022-08-26T10:41:09.700Z,34.45
2022-08-26T10:44:15.249Z,34.42
2022-08-26T10:47:29.184Z,34.30
2022-08-26T10:50:41.536Z,34.34
2022-08-26T10:54:03.263Z,34.19
2022-08-26T10:57:12.597Z,34.15
2022-08-26T11:00:39.812Z,34.18
2022-08-26T11:03:57.916Z,33.92
2022-08-26T11:07:32.768Z,33.72
2022-08-26T11:10:43.563Z,33.90
2022-08-26T11:13:58.018Z,33.95
2022-08-26T11:17:04.413Z,34.08
2022-08-26T11:20:13.481Z,34.21
2022-08-26T11:23:28.447Z,34.14
2022-08-26T11:26:56.346Z,33.87
2022-08-26T11:30:05.026Z,33.69
2022-08-26T11:33:08.268Z,33.49
2022-08-26T11:36:28.214Z,33.37
2022-08-26T11:39:53.878Z,33.24
2022-08-26T11:43:06.848Z,33.06
2022-08-26T11:46:11.769Z,32.91
2022-08-26T11:49:15.282Z,32.78
2022-08-26T11:52:22.404Z,32.83
2022-08-26T11:55:24.371Z,32.70
2022-08-26T11:58:27.984Z,32.68
2022-08-26T12:01:36.301Z,32.88
2022-08-26T12:04:42.055Z,32.99
2022-08-26T12:07:53.645Z,32.83
2022-08-26T12:11:14.176Z,32.65
2022-08-26T12:14:25.169Z,32.52
2022-08-26T12:17:29.473Z,32.40
2022-08-26T12:20:46.587Z,32.32
2022-08-26T12:23:51.659Z,32.19
2022-08-26T12:27:12.008Z,32.17
2022-08-26T12:30:21.259Z,32.16
2022-08-26T12:33:23.550Z,32.10
2022-08-26T12:36:31.706Z,31.96
2022-08-26T12:39:36.873Z,31.81
2022-08-26T12:42:42.572Z,31.63
2022-08-26T12:45:57.811Z,31.75
2022-08-26T12:49:04.118Z,31.78
2022-08-26T12:52:08.330Z,31.89
2022-08-26T12:55:33.505Z,32.04
2022-08-26T12:58:39.066Z,31.93
2022-08-26T13:01:43.830Z,31.87
2022-08-26T13:04:46.351Z,31.85
2022-08-26T13:08:11.903Z,31.83
2022-08-26T13:11:21.632Z,31.87
2022-08-26T13:14:29.315Z,31.75
2022-08-26T13:17:32.846Z,31.70
2022-08-26T13:20:35.567Z,31.60
2022-08-26T13:23:42.350Z,31.60
2022-08-26T13:26:46.891Z,31.48
2022-08-26T13:29:49.789Z,31.35
2022-08-26T13:32:58.114Z,31.41
2022-08-26T13:36:00.481Z,31.44
2022-08-26T13:39:02.615Z,31.33
2022-08-26T13:42:04.665Z,31.30
2022-08-26T13:45:07.171Z,31.26
2022-08-26T13:48:10.003Z,31.29
2022-08-26T13:51:12.745Z,31.17
2022-08-26T13:54:14.760Z,31.06
2022-08-26T13:57:16.899Z,30.92
2022-08-26T14:00:19.815Z,30.59
2022-08-26T14:03:22.464Z,30.15
2022-08-26T14:06:25.517Z,29.50
2022-08-26T14:09:27.662Z,28.77
2022-08-26T14:12:29.855Z,28.29
2022-08-26T14:15:37.939Z,28.05
2022-08-26T14:18:46.197Z,27.71
2022-08-26T14:21:50.728Z,27.62
2022-08-26T14:24:53.065Z,27.56
2022-08-26T14:27:55.633Z,27.48
2022-08-26T14:30:59.407Z,27.43
2022-08-26T14:34:04.983Z,27.39
2022-08-26T14:37:08.213Z,27.33
2022-08-26T14:40:12.180Z,27.37
2022-08-26T14:43:15.918Z,27.35
2022-08-26T14:46:20.850Z,27.40
2022-08-26T14:49:24.509Z,27.45
2022-08-26T14:52:29.703Z,27.50
2022-08-26T14:55:35.802Z,27.55
2022-08-26T14:58:37.776Z,27.57
2022-08-26T15:01:40.050Z,27.62
2022-08-26T15:04:42.174Z,27.64
2022-08-26T15:07:45.658Z,27.67
2022-08-26T15:10:47.626Z,27.65
2022-08-26T15:13:49.590Z,27.57
2022-08-26T15:16:54.652Z,27.62
2022-08-26T15:19:56.893Z,27.65
2022-08-26T15:23:03.311Z,27.64
2022-08-26T15:26:10.699Z,27.65
2022-08-26T15:29:13.534Z,27.64
2022-08-26T15:32:15.622Z,27.63
2022-08-26T15:35:18.942Z,27.63
2022-08-26T15:38:20.902Z,27.60
2022-08-26T15:41:23.292Z,27.53
2022-08-26T15:44:26.018Z,27.48
2022-08-26T15:47:28.134Z,27.51
2022-08-26T15:50:30.726Z,27.49
2022-08-26T15:53:34.854Z,27.45
2022-08-26T15:56:38.674Z,27.42
2022-08-26T15:59:40.758Z,27.40
2022-08-26T16:02:43.837Z,27.37
2022-08-26T16:05:46.963Z,27.33
2022-08-26T16:08:50.209Z,27.28
2022-08-26T16:11:52.270Z,27.26
2022-08-26T16:14:54.272Z,27.24
2022-08-26T16:17:58.985Z,27.16
2022-08-26T16:21:13.537Z,27.19
2022-08-26T16:24:16.770Z,27.18
2022-08-26T16:27:18.870Z,27.17
2022-08-26T16:30:25.222Z,27.14
2022-08-26T16:33:29.519Z,27.08
2022-08-26T16:36:32.337Z,27.05
2022-08-26T16:39:34.388Z,27.00
2022-08-26T16:42:42.641Z,26.95
2022-08-26T16:45:44.534Z,26.83
2022-08-26T16:48:46.582Z,26.84
2022-08-26T16:51:48.465Z,26.71
2022-08-26T16:54:50.462Z,26.74
2022-08-26T16:57:53.039Z,26.63
2022-08-26T17:00:57.094Z,26.68
2022-08-26T17:03:59.130Z,26.64
2022-08-26T17:07:01.165Z,26.60
2022-08-26T17:10:04.681Z,26.60
2022-08-26T17:13:06.745Z,26.58
2022-08-26T17:16:11.088Z,26.52
2022-08-26T17:19:13.177Z,26.56
2022-08-26T17:22:15.808Z,26.45
2022-08-26T17:25:30.263Z,26.50
2022-08-26T17:28:32.473Z,26.49
2022-08-26T17:31:35.065Z,26.48
2022-08-26T17:34:37.093Z,26.46
2022-08-26T17:37:39.316Z,26.40
2022-08-26T17:40:41.688Z,26.39
2022-08-26T17:43:43.776Z,26.37
2022-08-26T17:46:45.691Z,26.29
2022-08-26T17:49:50.005Z,26.32
2022-08-26T17:52:52.166Z,26.30
2022-08-26T17:55:54.095Z,26.29
2022-08-26T17:59:04.055Z,26.19
2022-08-26T18:02:07.648Z,26.18
2022-08-26T18:05:12.270Z,26.14
2022-08-26T18:08:16.536Z,26.11
2022-08-26T18:11:21.255Z,26.08
2022-08-26T18:14:25.372Z,26.10
2022-08-26T18:17:27.507Z,26.12
2022-08-26T18:20:29.411Z,26.10
2022-08-26T18:23:34.032Z,26.14
2022-08-26T18:26:40.692Z,26.33
2022-08-26T18:29:47.412Z,26.43
2022-08-26T18:32:50.818Z,26.56
2022-08-26T18:35:54.494Z,26.71
2022-08-26T18:38:57.978Z,26.79
2022-08-26T18:42:03.157Z,26.93
2022-08-26T18:45:06.790Z,26.98
2022-08-26T18:48:15.182Z,27.02
2022-08-26T18:51:20.792Z,27.09
2022-08-26T18:54:23.306Z,27.10
2022-08-26T18:57:26.425Z,27.08
2022-08-26T19:00:28.388Z,27.01
2022-08-26T19:03:31.242Z,27.04
2022-08-26T19:06:39.608Z,27.08
2022-08-26T19:09:43.944Z,27.09
2022-08-26T19:12:51.944Z,27.05
2022-08-26T19:15:55.890Z,27.03
2022-08-26T19:18:59.143Z,27.06
2022-08-26T19:22:01.532Z,27.03
2022-08-26T19:25:04.336Z,26.90
2022-08-26T19:28:06.521Z,26.78
2022-08-26T19:31:13.765Z,26.79
2022-08-26T19:34:21.678Z,26.86
2022-08-26T19:37:27.234Z,26.89
2022-08-26T19:40:32.542Z,26.97
2022-08-26T19:43:35.224Z,27.00
2022-08-26T19:49:47.862Z,26.96
2022-08-26T19:52:50.859Z,26.93
2022-08-26T19:55:52.855Z,26.89
2022-08-26T19:58:55.131Z,26.71
2022-08-26T20:02:01.446Z,26.58
2022-08-26T20:05:06.035Z,26.51
2022-08-26T20:08:08.144Z,26.35
2022-08-26T20:11:19.501Z,26.31
2022-08-26T20:14:23.179Z,26.25
2022-08-26T20:17:25.343Z,26.26
2022-08-26T20:20:45.717Z,26.24
2022-08-26T20:23:48.113Z,26.26
2022-08-26T20:26:51.575Z,26.11
2022-08-26T20:29:55.725Z,26.00
2022-08-26T20:32:57.670Z,25.96
2022-08-26T20:35:59.735Z,25.93
2022-08-26T20:39:01.708Z,25.77
2022-08-26T20:42:06.969Z,25.80
2022-08-26T20:45:26.134Z,25.70
2022-08-26T20:48:28.308Z,25.74
2022-08-26T20:51:30.361Z,25.78
2022-08-26T20:54:32.373Z,25.66
2022-08-26T20:57:34.776Z,25.76
2022-08-26T21:00:38.449Z,25.77
2022-08-26T21:03:41.006Z,25.75
2022-08-26T21:06:47.264Z,25.76
2022-08-26T21:09:55.078Z,25.70
2022-08-26T21:12:58.006Z,25.70
2022-08-26T21:16:00.073Z,25.65
2022-08-26T21:19:02.428Z,25.58
2022-08-26T21:22:05.686Z,25.58
2022-08-26T21:25:08.410Z,25.52
2022-08-26T21:28:12.961Z,25.54
2022-08-26T21:31:19.952Z,25.54
2022-08-26T21:34:22.116Z,25.59
2022-08-26T21:37:24.480Z,25.40
2022-08-26T21:40:27.809Z,25.41
2022-08-26T21:43:35.008Z,25.46
2022-08-26T21:46:41.905Z,25.53
2022-08-26T21:49:44.301Z,25.52
2022-08-26T21:52:46.376Z,25.56
2022-08-26T21:55:50.263Z,25.53
2022-08-26T21:58:55.158Z,25.67
2022-08-26T22:01:58.090Z,25.67
2022-08-26T22:05:00.112Z,25.67
2022-08-26T22:08:02.077Z,25.67
2022-08-26T22:11:04.948Z,25.69
2022-08-26T22:14:07.278Z,25.66
2022-08-26T22:17:09.544Z,25.65
2022-08-26T22:20:16.640Z,25.66
2022-08-26T22:23:20.515Z,25.61
2022-08-26T22:26:25.782Z,25.59
2022-08-26T22:29:28.107Z,25.54
2022-08-26T22:32:30.010Z,25.52
2022-08-26T22:35:31.999Z,25.55
2022-08-26T22:38:34.592Z,25.53
2022-08-26T22:41:36.753Z,25.53
2022-08-26T22:44:39.060Z,25.49
2022-08-26T22:47:41.655Z,25.48
2022-08-26T22:50:45.957Z,25.53
2022-08-26T22:53:48.009Z,25.54
2022-08-26T22:56:50.147Z,25.60
2022-08-26T22:59:52.103Z,25.52
2022-08-26T23:02:54.117Z,25.55
2022-08-26T23:05:56.242Z,25.49
2022-08-26T23:08:58.314Z,25.54
2022-08-26T23:12:00.462Z,25.46
2022-08-26T23:15:02.496Z,25.38
2022-08-26T23:18:05.266Z,25.35
2022-08-26T23:21:07.376Z,25.31
2022-08-26T23:24:10.134Z,25.27
2022-08-26T23:27:12.207Z,25.21
2022-08-26T23:30:21.712Z,25.19
2022-08-26T23:33:24.016Z,25.17
2022-08-26T23:36:26.198Z,25.17
2022-08-26T23:39:28.984Z,25.19
2022-08-26T23:42:31.020Z,25.13
2022-08-26T23:45:33.108Z,24.88
2022-08-26T23:48:35.158Z,24.84
2022-08-26T23:51:57.362Z,24.75
2022-08-26T23:54:59.524Z,24.67
2022-08-26T23:58:01.672Z,24.57
